Otay Mesa Border Station Data

Red Flag Warning: No
Fire Weather Zone: 243
SDGE Region: Metro
Lat/Lon: 32.558/-116.9

Observations

Time Wind Speed/Gust Temp(F) RH Fuel Moist Fuel Temp(F) Dewpt(F) Tmax(F) Tmin(F) Accum Precip 10-min Precip SL Press(mb)
4/29 11:50pm 41 6 G 7 64° 24% - - 26° 81.5° 56.5° - - -
4/29 11:40pm 40 6 G 6 64° 23% - - 26° 81.5° 56.5° - - -
4/29 11:30pm 38 5 G 6 65° 23% - - 26° 81.5° 56.5° - - -
4/29 11:20pm 40 6 G 6 65° 23% - - 26° 81.5° 56.5° - - -
4/29 11:10pm 42 5 G 6 66° 22% - - 26° 81.5° 56.5° - - -
4/29 11:00pm 53 4 G 5 66° 22% - - 26° 81.5° 56.5° - - -
4/29 10:50pm 58 3 G 6 67° 21% - - 26° 81.5° 56.5° - - -
4/29 10:40pm 30 4 G 5 64° 23% - - 25° 81.5° 56.5° - - -
4/29 10:30pm 224 2 G 4 64° 22% - - 25° 81.5° 56.5° - - -
4/29 10:20pm 215 2 G 3 66° 21% - - 25° 81.5° 56.5° - - -
4/29 10:10pm 119 3 G 5 67° 20% - - 25° 81.5° 56.5° - - -
4/29 10:00pm 8 5 G 10 69° 18% - - 24° 81.5° 56.5° - - -
4/29 9:50pm 347 8 G 11 69° 19% - - 25° 81.5° 56.5° - - -
4/29 9:40pm 346 9 G 13 70° 19% - - 25° 81.5° 56.5° - - -
4/29 9:30pm 353 10 G 14 70° 19% - - 26° 81.5° 56.5° - - -
4/29 9:20pm 358 12 G 16 70° 20% - - 27° 81.5° 56.5° - - -
4/29 9:10pm 0 12 G 14 71° 19% - - 26° 81.5° 56.5° - - -
4/29 9:00pm 357 11 G 14 71° 19% - - 26° 81.5° 56.5° - - -
4/29 8:50pm 359 11 G 14 70° 19% - - 25° 81.5° 56.5° - - -
4/29 8:40pm 352 10 G 16 70° 19% - - 25° 81.5° 56.5° - - -
4/29 8:30pm 350 11 G 15 70° 19% - - 26° 81.5° 56.5° - - -
4/29 8:20pm 355 11 G 13 70° 19% - - 26° 81.5° 56.5° - - -
4/29 8:10pm 357 10 G 13 69° 19% - - 25° 81.5° 56.5° - - -
4/29 8:00pm 359 10 G 11 70° 19% - - 25° 81.5° 56.5° - - -
4/29 7:50pm 357 9 G 10 70° 19% - - 26° 81.5° 56.5° - - -
4/29 7:40pm 353 8 G 10 70° 20% - - 27° 81.5° 56.5° - - -
4/29 7:30pm 342 7 G 10 71° 21% - - 29° 81.5° 56.5° - - -
4/29 7:20pm 328 7 G 10 71° 20% - - 29° 81.5° 56.5° - - -
4/29 7:10pm 331 7 G 10 71° 21% - - 29° 81.5° 56.5° - - -
4/29 7:00pm 309 8 G 11 71° 22% - - 30° 81.5° 56.5° - - -
4/29 6:50pm 304 9 G 12 72° 25% - - 34° 81.5° 56.5° - - -
4/29 6:40pm 299 9 G 13 73° 26% - - 36° 81.5° 56.5° - - -
4/29 6:30pm 293 9 G 12 74° 21% - - 32° 81.5° 56.5° - - -
4/29 6:20pm 285 10 G 14 74° 19% - - 29° 81.5° 56.5° - - -
4/29 6:10pm 285 11 G 15 74° 17% - - 26° 81.5° 56.5° - - -
4/29 6:00pm 288 11 G 15 75° 16% - - 25° 81.5° 56.5° - - -
4/29 5:50pm 285 12 G 15 75° 14% - - 23° 81.5° 56.5° - - -
4/29 5:40pm 280 12 G 17 75° 14% - - 22° 81.5° 56.5° - - -
4/29 5:30pm 277 11 G 17 75° 14% - - 22° 81.5° 56.5° - - -
4/29 5:20pm 281 11 G 15 75° 13% - - 22° 81.5° 56.5° - - -
4/29 5:10pm 286 12 G 17 75° 13% - - 22° 81.5° 56.5° - - -
4/29 5:00pm 285 13 G 16 75° 13% - - 21° 81.5° 56.5° - - -
4/29 4:50pm 275 13 G 17 76° 13% - - 21° 81.5° 56.5° - - -
4/29 4:40pm 271 12 G 17 77° 13% - - 21° 81.5° 56.5° - - -
4/29 4:30pm 291 12 G 17 77° 12% - - 21° 81.5° 56.5° - - -
4/29 4:20pm 285 13 G 18 77° 13% - - 21° 81.5° 56.5° - - -
4/29 4:10pm 296 14 G 18 77° 13% - - 23° 81.5° 56.5° - - -
4/29 4:00pm 284 13 G 20 77° 13% - - 22° 81.5° 56.5° - - -
4/29 3:50pm 290 13 G 17 78° 12% - - 21° 81.5° 56.5° - - -
4/29 3:40pm 308 13 G 18 77° 12% - - 21° 81.5° 56.5° - - -
4/29 3:30pm 294 12 G 17 78° 11% - - 20° 81.5° 56.5° - - -
4/29 3:20pm 294 12 G 17 77° 11% - - 20° 81.5° 56.5° - - -
4/29 3:10pm 295 11 G 16 78° 12% - - 20° 81.5° 56.5° - - -
4/29 3:00pm 299 11 G 16 78° 12% - - 21° 81.5° 56.5° - - -
4/29 2:50pm 299 11 G 16 79° 12% - - 21° 81.5° 56.5° - - -
4/29 2:40pm 294 11 G 18 78° 12% - - 21° 81.5° 56.5° - - -
4/29 2:30pm 289 12 G 19 78° 12% - - 21° 81.5° 56.5° - - -
4/29 2:20pm 288 11 G 17 78° 12% - - 20° 81.5° 56.5° - - -
4/29 2:10pm 283 11 G 16 78° 12% - - 21° 81.5° 56.5° - - -
4/29 2:00pm 300 12 G 16 78° 12% - - 21° 81.5° 56.5° - - -
4/29 1:50pm 298 14 G 19 78° 12% - - 21° 81.5° 56.5° - - -
4/29 1:40pm 287 14 G 22 78° 12% - - 21° 81.5° 56.5° - - -
4/29 1:30pm 283 13 G 18 79° 12% - - 21° 81.5° 56.5° - - -
4/29 1:20pm 271 13 G 18 79° 12% - - 21° 81.5° 56.5° - - -
4/29 1:10pm 267 12 G 18 79° 12% - - 22° 81.5° 56.5° - - -
4/29 1:00pm 276 13 G 19 79° 12% - - 22° 81.5° 56.5° - - -
4/29 12:50pm 274 12 G 18 80° 12% - - 22° 81.5° 56.5° - - -
4/29 12:40pm 291 11 G 25 79° 12% - - 22° 81° 56.5° - - -
4/29 12:30pm 279 10 G 17 79° 11% - - 21° 80.6° 56.5° - - -
4/29 12:20pm 268 9 G 15 80° 11% - - 21° 80.6° 56.5° - - -
4/29 12:10pm 268 8 G 14 79° 12% - - 21° 80.4° 56.5° - - -
4/29 12:00pm 259 8 G 15 78° 12% - - 22° 80.4° 56.5° - - -
4/29 11:50am 239 9 G 17 79° 11% - - 21° 80.4° 56.5° - - -
4/29 11:40am 203 5 G 10 79° 9% - - 17° 80.4° 56.5° - - -
4/29 11:30am 181 6 G 12 79° 9% - - 16° 80.4° 56.5° - - -
4/29 11:20am 145 7 G 13 79° 9% - - 16° 80.4° 56.5° - - -
4/29 11:10am 114 6 G 12 79° 10% - - 17° 80.4° 56.5° - - -
4/29 11:00am 134 6 G 12 79° 9% - - 17° 80° 56.5° - - -
4/29 10:50am 131 9 G 16 78° 10% - - 17° 79.4° 56.5° - - -
4/29 10:40am 101 9 G 15 78° 10% - - 17° 79.4° 56.5° - - -
4/29 10:30am 136 8 G 14 78° 10% - - 17° 79° 56.5° - - -
4/29 10:20am 111 10 G 19 77° 10% - - 17° 78.3° 56.5° - - -
4/29 10:10am 121 10 G 17 77° 10% - - 16° 77.5° 56.5° - - -
4/29 10:00am 249 3 G 10 77° 11% - - 17° 77.4° 56.5° - - -
4/29 9:50am 294 4 G 10 76° 11% - - 18° 76.5° 56.5° - - -
4/29 9:40am 297 3 G 9 75° 11% - - 18° 76° 56.5° - - -
4/29 9:30am 276 4 G 8 75° 12% - - 18° 76° 56.5° - - -
4/29 9:20am 310 4 G 13 75° 12% - - 18° 75.4° 56.5° - - -
4/29 9:10am 310 4 G 8 74° 12% - - 18° 75.1° 56.5° - - -
4/29 9:00am 314 5 G 9 73° 12% - - 18° 73.9° 56.5° - - -
4/29 8:50am 321 4 G 8 73° 12% - - 17° 73.7° 56.5° - - -
4/29 8:40am 316 2 G 5 73° 12% - - 17° 73.7° 56.5° - - -
4/29 8:30am 337 3 G 9 72° 12% - - 17° 73.6° 56.5° - - -
4/29 8:20am 316 4 G 8 72° 13% - - 19° 72.5° 56.5° - - -
4/29 8:10am 265 2 G 5 71° 13% - - 18° 72.2° 56.5° - - -
4/29 8:00am 202 4 G 6 69° 13% - - 17° 70.6° 56.5° - - -
4/29 7:50am 244 4 G 7 68° 18% - - 23° 68.7° 56.5° - - -
4/29 7:40am 297 3 G 4 67° 20% - - 25° 67.5° 56.5° - - -
4/29 7:30am 201 1 G 2 66° 20% - - 24° 67.1° 56.5° - - -
4/29 7:20am 48 2 G 5 65° 22% - - 24° 65.7° 56.5° - - -
4/29 7:10am 45 3 G 7 63° 23% - - 24° 65.7° 56.5° - - -
4/29 7:00am 15 2 G 3 62° 24% - - 25° 65.7° 56.5° - - -
4/29 6:50am 319 2 G 5 62° 24% - - 25° 65.7° 56.5° - - -
4/29 6:40am 346 2 G 5 62° 24% - - 25° 65.7° 56.5° - - -
4/29 6:30am 355 2 G 5 60° 27% - - 26° 65.7° 56.5° - - -
4/29 6:20am 18 3 G 5 61° 25% - - 25° 65.7° 56.5° - - -
4/29 6:10am 40 3 G 6 61° 27% - - 26° 65.7° 56.5° - - -
4/29 6:00am 167 2 G 5 60° 30% - - 29° 65.7° 56.5° - - -
4/29 5:50am 267 4 G 6 62° 27% - - 27° 65.7° 56.5° - - -
4/29 5:40am 1 3 G 5 62° 25% - - 26° 65.7° 56.5° - - -
4/29 5:30am 33 3 G 5 62° 26% - - 26° 65.7° 56.5° - - -
4/29 5:20am 40 3 G 6 63° 26% - - 28° 65.7° 56.5° - - -
4/29 5:10am 50 2 G 4 62° 28% - - 29° 65.7° 56.5° - - -
4/29 5:00am 60 2 G 4 62° 30% - - 30° 65.7° 56.5° - - -
4/29 4:50am 335 2 G 4 60° 34% - - 32° 65.7° 56.5° - - -
4/29 4:40am 39 2 G 5 63° 28% - - 30° 65.7° 56.5° - - -
4/29 4:30am 90 3 G 7 62° 33% - - 32° 65.7° 56.5° - - -
4/29 4:20am 0 3 G 6 63° 36% - - 35° 64.6° 56.5° - - -
4/29 4:10am 37 4 G 10 61° 43% - - 38° 64.6° 56.5° - - -
4/29 4:00am 23 2 G 5 60° 51% - - 42° 64.6° 56.5° - - -
4/29 3:50am 322 2 G 6 60° 50% - - 41° 64.6° 56.5° - - -
4/29 3:40am 353 2 G 5 61° 46% - - 40° 64.6° 56.5° - - -
4/29 3:30am 292 3 G 8 62° 45% - - 40° 64.6° 56.5° - - -
4/29 3:20am 296 4 G 8 59° 57% - - 44° 62.1° 56.5° - - -
4/29 3:10am 326 4 G 8 58° 58% - - 43° 62.1° 56.5° - - -
4/29 3:00am 315 2 G 5 59° 54% - - 42° 62.1° 57.5° - - -
4/29 2:50am 22 3 G 8 59° 54% - - 42° 62.1° 57.5° - - -
4/29 2:40am 48 2 G 8 59° 54% - - 42° 62.1° 57.5° - - -
4/29 2:30am 44 1 G 3 59° 52% - - 42° 62.1° 57.6° - - -
4/29 2:20am 51 2 G 6 59° 53% - - 41° 62.1° 57.6° - - -
4/29 2:10am 65 1 G 2 59° 53% - - 42° 62.1° 57.9° - - -
4/29 2:00am 92 1 G 2 59° 52% - - 42° 62.1° 57.9° - - -
4/29 1:50am 54 3 G 4 59° 54% - - 43° 62.1° 57.9° - - -
4/29 1:40am 104 3 G 5 60° 53% - - 43° 62.1° 57.9° - - -
4/29 1:30am 80 4 G 6 59° 51% - - 41° 62.1° 57.9° - - -
4/29 1:20am 80 3 G 6 61° 47% - - 40° 62.1° 57.9° - - -
4/29 1:10am 25 2 G 4 60° 47% - - 40° 62.1° 57.9° - - -
4/29 1:00am 50 2 G 4 59° 51% - - 41° 62.1° 57.9° - - -
4/29 12:50am 10 1 G 3 61° 51% - - 43° 62.1° 57.9° - - -
4/29 12:40am 1 4 G 8 61° 52% - - 43° 62.1° 57.9° - - -
4/29 12:30am 305 8 G 10 60° 56% - - 45° 61.7° 57.9° - - -
4/29 12:20am 298 5 G 10 60° 55% - - 44° 61.5° 57.9° - - -
4/29 12:10am 0 3 G 6 60° 52% - - 43° 61.4° 59.3° - - -
4/29 12:00am 31 2 G 4 59° 57% - - 44° 74° 51.9° - - -
4/28 11:50pm 314 1 G 4 59° 57% - - 44° 74° 51.9° - - -
4/28 11:40pm 30 3 G 6 61° 55% - - 44° 74° 51.9° - - -
4/28 11:30pm 50 4 G 7 60° 59% - - 45° 74° 51.9° - - -
4/28 11:20pm 177 0 G 2 60° 59% - - 46° 74° 51.9° - - -
4/28 11:10pm 141 2 G 3 62° 58% - - 47° 74° 51.9° - - -
4/28 11:00pm 124 4 G 7 61° 60% - - 47° 74° 51.9° - - -
4/28 10:50pm 350 5 G 7 62° 62% - - 48° 74° 51.9° - - -
4/28 10:40pm 104 3 G 7 62° 63% - - 50° 74° 51.9° - - -
4/28 10:30pm 165 2 G 3 62° 65% - - 50° 74° 51.9° - - -
4/28 10:20pm 66 2 G 4 61° 66% - - 49° 74° 51.9° - - -
4/28 10:10pm 87 5 G 6 62° 64% - - 50° 74° 51.9° - - -
4/28 10:00pm 51 5 G 7 61° 67% - - 49° 74° 51.9° - - -
4/28 9:50pm 39 5 G 7 60° 68% - - 50° 74° 51.9° - - -
4/28 9:40pm 29 4 G 5 60° 70% - - 50° 74° 51.9° - - -
4/28 9:30pm 36 4 G 5 60° 70% - - 50° 74° 51.9° - - -
4/28 9:20pm 119 2 G 3 61° 69% - - 51° 74° 51.9° - - -
4/28 9:10pm 138 2 G 4 60° 70% - - 50° 74° 51.9° - - -
4/28 9:00pm 311 1 G 4 61° 69% - - 50° 74° 51.9° - - -
4/28 8:50pm 199 1 G 2 61° 69% - - 51° 74° 51.9° - - -
4/28 8:40pm 110 1 G 2 61° 69% - - 51° 74° 51.9° - - -
4/28 8:30pm 308 4 G 7 61° 68% - - 51° 74° 51.9° - - -
4/28 8:20pm 298 5 G 7 62° 67% - - 51° 74° 51.9° - - -
4/28 8:10pm 329 3 G 5 62° 66% - - 51° 74° 51.9° - - -
4/28 8:00pm 39 2 G 5 63° 65% - - 51° 74° 51.9° - - -
4/28 7:50pm 1 3 G 5 63° 64% - - 51° 74° 51.9° - - -
4/28 7:40pm 348 3 G 6 64° 64% - - 51° 74° 51.9° - - -
4/28 7:30pm 347 2 G 5 64° 63% - - 51° 74° 51.9° - - -
4/28 7:20pm 313 3 G 5 64° 62% - - 51° 74° 51.9° - - -
4/28 7:10pm 312 3 G 6 65° 61% - - 51° 74° 51.9° - - -
4/28 7:00pm 287 5 G 9 65° 60% - - 51° 74° 51.9° - - -
4/28 6:50pm 294 7 G 10 66° 59% - - 51° 74° 51.9° - - -
4/28 6:40pm 308 7 G 10 66° 58% - - 51° 74° 51.9° - - -
4/28 6:30pm 305 8 G 11 66° 57% - - 51° 74° 51.9° - - -
4/28 6:20pm 306 9 G 13 66° 56% - - 50° 74° 51.9° - - -
4/28 6:10pm 301 8 G 12 67° 55% - - 50° 74° 51.9° - - -
4/28 6:00pm 291 9 G 12 67° 54% - - 50° 74° 51.9° - - -